createdAt,value
2018-07-07T00:00:33.080Z,88.00
2018-07-07T00:03:02.476Z,88.30
2018-07-07T00:05:31.817Z,88.20
2018-07-07T00:08:01.336Z,88.30
2018-07-07T00:10:30.831Z,88.70
2018-07-07T00:13:00.333Z,88.60
2018-07-07T00:15:30.167Z,89.00
2018-07-07T00:17:59.639Z,89.00
2018-07-07T00:20:28.959Z,89.00
2018-07-07T00:22:58.246Z,89.30
2018-07-07T00:25:27.679Z,89.30
2018-07-07T00:27:57.141Z,89.70
2018-07-07T00:30:26.469Z,89.70
2018-07-07T00:32:55.939Z,90.00
2018-07-07T00:35:25.468Z,90.00
2018-07-07T00:37:54.979Z,90.10
2018-07-07T00:40:24.315Z,90.30
2018-07-07T00:42:53.844Z,90.30
2018-07-07T00:45:23.340Z,90.40
2018-07-07T00:47:52.699Z,90.40
2018-07-07T00:50:21.950Z,90.60
2018-07-07T00:52:51.376Z,91.00
2018-07-07T00:55:20.794Z,90.80
2018-07-07T00:57:50.172Z,90.80
2018-07-07T01:00:19.535Z,91.00
2018-07-07T01:02:49.102Z,91.00
2018-07-07T01:05:29.666Z,91.10
2018-07-07T01:07:59.054Z,91.20
2018-07-07T01:12:58.192Z,91.30
2018-07-07T01:15:28.357Z,91.40
2018-07-07T01:17:57.797Z,91.40
2018-07-07T01:20:27.072Z,91.50
2018-07-07T01:22:56.400Z,91.50
2018-07-07T01:25:26.603Z,91.60
2018-07-07T01:27:55.862Z,91.70
2018-07-07T01:30:25.247Z,91.70
2018-07-07T01:32:55.068Z,91.50
2018-07-07T01:35:24.854Z,91.40
2018-07-07T01:37:54.464Z,91.70
2018-07-07T01:40:23.985Z,91.70
2018-07-07T01:42:53.544Z,91.80
2018-07-07T01:45:23.075Z,91.90
2018-07-07T01:47:52.415Z,92.00
2018-07-07T02:00:06.917Z,92.00
2018-07-07T02:02:36.335Z,92.30
2018-07-07T02:05:05.702Z,92.30
2018-07-07T02:07:34.966Z,92.30
2018-07-07T02:10:05.056Z,92.40
2018-07-07T02:12:34.407Z,92.60
2018-07-07T02:15:03.841Z,92.70
2018-07-07T02:17:33.204Z,92.70
2018-07-07T02:20:02.601Z,92.60
2018-07-07T02:22:32.475Z,92.50
2018-07-07T02:25:01.791Z,92.20
2018-07-07T02:27:31.150Z,92.00
2018-07-07T02:30:00.514Z,92.40
2018-07-07T02:32:29.807Z,92.20
2018-07-07T02:34:59.239Z,92.10
2018-07-07T02:37:28.618Z,92.20
2018-07-07T02:39:58.141Z,92.20
2018-07-07T02:42:27.590Z,92.40
2018-07-07T02:44:56.913Z,92.60
2018-07-07T02:47:26.234Z,92.50
2018-07-07T02:49:56.499Z,92.50
2018-07-07T02:52:25.854Z,92.50
2018-07-07T02:54:55.181Z,92.60
2018-07-07T02:57:24.601Z,92.70
2018-07-07T02:59:53.962Z,92.60
2018-07-07T03:02:23.373Z,92.50
2018-07-07T03:04:52.901Z,92.80
2018-07-07T03:07:22.416Z,92.90
2018-07-07T03:09:52.251Z,92.80
2018-07-07T03:12:21.590Z,92.90
2018-07-07T03:14:51.041Z,93.30
2018-07-07T03:17:20.298Z,92.90
2018-07-07T03:19:49.803Z,93.50
2018-07-07T03:22:19.270Z,93.30
2018-07-07T03:24:48.693Z,93.40
2018-07-07T03:27:18.435Z,93.40
2018-07-07T03:29:47.789Z,93.40
2018-07-07T03:32:17.254Z,93.60
2018-07-07T03:34:46.559Z,93.70
2018-07-07T03:37:15.886Z,93.70
2018-07-07T03:39:45.424Z,93.80
2018-07-07T03:42:15.035Z,93.70
2018-07-07T03:44:44.496Z,93.80
2018-07-07T03:47:14.567Z,93.80
2018-07-07T03:49:43.874Z,93.60
2018-07-07T03:52:13.564Z,93.80
2018-07-07T03:54:43.039Z,93.50
2018-07-07T03:57:12.367Z,93.30
2018-07-07T03:59:41.783Z,93.10
2018-07-07T04:02:11.398Z,92.90
2018-07-07T04:04:41.479Z,92.70
2018-07-07T04:07:11.073Z,92.30
2018-07-07T04:09:40.948Z,92.40
2018-07-07T04:12:11.475Z,92.30
2018-07-07T04:14:40.882Z,92.30
2018-07-07T04:17:10.183Z,92.30
2018-07-07T04:19:39.470Z,92.50
2018-07-07T04:22:08.782Z,92.40
2018-07-07T04:24:38.253Z,92.30
2018-07-07T04:27:08.445Z,92.50
2018-07-07T04:29:38.090Z,92.00
2018-07-07T04:34:37.147Z,92.00
2018-07-07T04:37:06.818Z,92.00
2018-07-07T04:39:36.231Z,91.90
2018-07-07T04:42:05.564Z,91.70
2018-07-07T04:44:35.466Z,91.50
2018-07-07T04:47:04.746Z,91.50
2018-07-07T04:49:34.288Z,91.40
2018-07-07T04:52:03.901Z,91.00
2018-07-07T04:54:33.452Z,90.90
2018-07-07T04:57:02.911Z,90.80
2018-07-07T04:59:32.410Z,90.70
2018-07-07T05:02:02.021Z,90.60
2018-07-07T05:07:00.502Z,90.50
2018-07-07T05:09:29.799Z,90.40
2018-07-07T05:11:59.183Z,90.40
2018-07-07T05:14:28.516Z,90.30
2018-07-07T05:16:57.789Z,90.10
2018-07-07T05:19:27.387Z,89.00
2018-07-07T05:21:56.714Z,88.50
2018-07-07T05:24:26.102Z,88.30
2018-07-07T05:26:55.501Z,87.80
2018-07-07T05:29:25.043Z,87.60
2018-07-07T05:31:54.515Z,87.10
2018-07-07T05:34:23.802Z,87.20
2018-07-07T05:36:53.332Z,86.40
2018-07-07T05:39:22.636Z,86.00
2018-07-07T05:41:52.320Z,85.30
2018-07-07T05:44:21.709Z,84.80
2018-07-07T05:46:51.526Z,84.70
2018-07-07T05:49:21.064Z,85.20
2018-07-07T05:51:50.387Z,86.30
2018-07-07T05:54:19.758Z,86.60
2018-07-07T05:56:49.136Z,86.50
2018-07-07T05:59:18.547Z,86.60
2018-07-07T06:01:47.998Z,85.20
2018-07-07T06:04:17.268Z,85.40
2018-07-07T06:06:46.581Z,85.30
2018-07-07T06:11:45.203Z,84.00
2018-07-07T06:14:14.547Z,84.00
2018-07-07T06:16:43.904Z,83.90
2018-07-07T06:19:13.283Z,83.30
2018-07-07T06:21:42.954Z,83.30
2018-07-07T06:24:12.495Z,82.50
2018-07-07T06:26:41.844Z,83.20
2018-07-07T06:29:11.341Z,82.10
2018-07-07T06:31:40.728Z,82.10
2018-07-07T06:34:10.174Z,81.70
2018-07-07T06:36:39.558Z,81.60
2018-07-07T06:39:08.874Z,80.70
2018-07-07T06:44:07.845Z,78.60
2018-07-07T06:46:37.315Z,77.30
2018-07-07T06:51:35.630Z,76.80
2018-07-07T06:54:05.175Z,74.50
2018-07-07T06:59:03.421Z,74.30
2018-07-07T07:01:32.811Z,75.20
2018-07-07T07:04:02.543Z,74.80
2018-07-07T07:06:31.979Z,74.30
2018-07-07T07:09:01.364Z,72.00
2018-07-07T07:11:30.918Z,71.50
2018-07-07T07:14:00.475Z,69.80
2018-07-07T07:16:29.767Z,70.70
2018-07-07T07:18:59.140Z,69.50
2018-07-07T07:21:28.595Z,69.10
2018-07-07T07:26:26.994Z,69.70
2018-07-07T07:28:56.317Z,72.30
2018-07-07T07:31:25.627Z,71.60
2018-07-07T07:33:55.167Z,70.50
2018-07-07T07:36:39.626Z,70.50
2018-07-07T07:39:09.023Z,68.80
2018-07-07T07:41:38.481Z,67.70
2018-07-07T07:44:08.107Z,66.00
2018-07-07T07:46:37.468Z,66.80
2018-07-07T07:49:07.470Z,67.90
2018-07-07T07:51:37.029Z,65.90
2018-07-07T07:54:06.687Z,65.80
2018-07-07T07:56:36.239Z,64.80
2018-07-07T07:59:06.930Z,62.90
2018-07-07T08:01:36.437Z,61.50
2018-07-07T08:04:05.768Z,61.90
2018-07-07T08:06:35.158Z,61.60
2018-07-07T08:09:04.753Z,61.40
2018-07-07T08:11:34.094Z,60.00
2018-07-07T08:14:04.120Z,59.00
2018-07-07T08:16:33.694Z,60.00
2018-07-07T08:19:03.060Z,58.50
2018-07-07T08:21:33.932Z,58.40
2018-07-07T08:24:03.427Z,55.50
2018-07-07T08:26:32.786Z,55.70
2018-07-07T08:29:02.138Z,55.40
2018-07-07T08:31:31.545Z,50.50
2018-07-07T08:34:01.775Z,52.40
2018-07-07T08:36:31.161Z,53.90
2018-07-07T08:39:00.500Z,56.00
2018-07-07T08:41:29.984Z,57.40
2018-07-07T08:43:59.938Z,57.30
2018-07-07T08:46:29.332Z,56.20
2018-07-07T08:48:58.662Z,55.40
2018-07-07T08:51:27.881Z,54.90
2018-07-07T08:53:58.142Z,55.70
2018-07-07T08:56:27.638Z,55.10
2018-07-07T08:58:56.973Z,56.40
2018-07-07T09:01:26.495Z,57.20
2018-07-07T09:03:55.961Z,57.70
2018-07-07T09:06:25.337Z,57.70
2018-07-07T09:08:54.902Z,56.60
2018-07-07T09:11:24.248Z,56.70
2018-07-07T09:13:53.750Z,57.60
2018-07-07T09:16:23.151Z,58.40
2018-07-07T09:18:53.087Z,59.20
2018-07-07T09:21:22.998Z,59.10
2018-07-07T09:23:55.106Z,58.00
2018-07-07T09:26:24.710Z,57.20
2018-07-07T09:28:54.050Z,56.20
2018-07-07T09:31:23.316Z,55.60
2018-07-07T09:33:52.631Z,56.60
2018-07-07T09:36:22.237Z,55.70
2018-07-07T09:38:51.686Z,54.80
2018-07-07T09:41:21.175Z,55.70
2018-07-07T09:43:50.503Z,56.90
2018-07-07T09:46:19.723Z,55.40
2018-07-07T09:48:49.100Z,54.30
2018-07-07T09:51:18.413Z,55.10
2018-07-07T09:53:47.706Z,55.20
2018-07-07T09:56:17.195Z,54.60
2018-07-07T09:58:46.502Z,53.90
2018-07-07T10:01:15.874Z,54.50
2018-07-07T10:03:45.220Z,52.60
2018-07-07T10:06:14.479Z,53.50
2018-07-07T10:08:43.730Z,51.60
2018-07-07T10:11:13.029Z,52.40
2018-07-07T10:13:42.392Z,51.00
2018-07-07T10:16:11.723Z,50.90
2018-07-07T10:18:41.289Z,51.10
2018-07-07T10:21:10.604Z,51.70
2018-07-07T10:23:40.008Z,50.50
2018-07-07T10:26:09.326Z,50.40
2018-07-07T10:28:38.690Z,51.80
2018-07-07T10:31:08.719Z,53.50
2018-07-07T10:33:38.024Z,52.80
2018-07-07T10:36:07.424Z,51.20
2018-07-07T10:38:36.747Z,50.20
2018-07-07T10:41:06.229Z,48.30
2018-07-07T10:43:35.622Z,49.10
2018-07-07T10:46:05.216Z,49.40
2018-07-07T10:48:34.470Z,48.30
2018-07-07T10:51:03.841Z,47.40
2018-07-07T10:53:33.255Z,47.90
2018-07-07T10:56:03.445Z,46.30
2018-07-07T10:58:32.942Z,45.60
2018-07-07T11:01:02.481Z,45.40
2018-07-07T11:03:31.720Z,45.00
2018-07-07T11:06:00.996Z,45.10
2018-07-07T11:08:30.234Z,45.40
2018-07-07T11:10:59.522Z,45.70
2018-07-07T11:13:28.777Z,47.00
2018-07-07T11:15:58.245Z,45.80
2018-07-07T11:18:28.259Z,46.90
2018-07-07T11:20:58.080Z,45.60
2018-07-07T11:25:57.359Z,45.20
2018-07-07T11:28:26.985Z,45.40
2018-07-07T11:30:56.609Z,45.70
2018-07-07T11:33:25.879Z,45.40
2018-07-07T11:35:55.105Z,45.80
2018-07-07T11:38:24.387Z,45.50
2018-07-07T11:40:54.234Z,46.40
2018-07-07T11:43:23.570Z,43.80
2018-07-07T11:45:52.883Z,43.10
2018-07-07T11:48:22.195Z,41.80
2018-07-07T11:50:51.595Z,41.90
2018-07-07T11:53:21.370Z,42.80
2018-07-07T11:55:52.973Z,45.20
2018-07-07T11:58:22.675Z,44.40
2018-07-07T12:00:51.958Z,44.40
2018-07-07T12:03:21.258Z,42.90
2018-07-07T12:05:50.499Z,42.90
2018-07-07T12:08:19.786Z,43.90
2018-07-07T12:10:48.966Z,42.00
2018-07-07T12:13:18.241Z,42.20
2018-07-07T12:15:47.518Z,42.80
2018-07-07T12:18:16.776Z,42.20
2018-07-07T12:20:45.995Z,41.50
2018-07-07T12:23:15.235Z,41.00
2018-07-07T12:25:44.481Z,41.40
2018-07-07T12:28:13.836Z,42.80
2018-07-07T12:30:43.140Z,41.70
2018-07-07T12:33:12.550Z,41.50
2018-07-07T12:35:42.396Z,40.40
2018-07-07T12:38:11.697Z,41.80
2018-07-07T12:40:41.795Z,41.10
2018-07-07T12:43:13.559Z,41.10
2018-07-07T12:45:42.820Z,40.90
2018-07-07T12:48:12.067Z,41.20
2018-07-07T12:50:41.360Z,41.60
2018-07-07T12:53:10.700Z,41.70
2018-07-07T12:55:39.993Z,40.90
2018-07-07T12:58:09.298Z,40.30
2018-07-07T13:00:38.569Z,41.60
2018-07-07T13:03:07.758Z,38.40
2018-07-07T13:05:37.073Z,38.90
2018-07-07T13:08:06.387Z,40.80
2018-07-07T13:10:35.618Z,40.00
2018-07-07T13:13:04.957Z,40.80
2018-07-07T13:15:34.182Z,39.90
2018-07-07T13:18:03.484Z,38.30
2018-07-07T13:20:32.743Z,38.10
2018-07-07T13:23:02.016Z,38.30
2018-07-07T13:25:31.306Z,38.70
2018-07-07T13:28:00.655Z,39.30
2018-07-07T13:30:29.912Z,39.40
2018-07-07T13:32:59.241Z,39.20
2018-07-07T13:35:28.470Z,39.90
2018-07-07T13:37:57.812Z,40.40
2018-07-07T13:40:27.114Z,40.40
2018-07-07T13:42:56.384Z,39.10
2018-07-07T13:45:25.643Z,39.30
2018-07-07T13:47:55.069Z,38.80
2018-07-07T13:50:24.301Z,39.00
2018-07-07T13:52:53.669Z,38.30
2018-07-07T13:55:22.855Z,38.80
2018-07-07T13:57:52.074Z,40.10
2018-07-07T14:00:21.314Z,39.70
2018-07-07T14:02:50.548Z,41.00
2018-07-07T14:05:19.982Z,38.80
2018-07-07T14:07:49.354Z,38.90
2018-07-07T14:10:18.693Z,39.90
2018-07-07T14:12:48.119Z,40.00
2018-07-07T14:15:17.350Z,39.60
2018-07-07T14:17:46.612Z,41.00
2018-07-07T14:20:15.948Z,40.20
2018-07-07T14:22:45.246Z,40.80
2018-07-07T14:25:14.546Z,41.50
2018-07-07T14:27:43.929Z,40.60
2018-07-07T14:30:13.227Z,40.20
2018-07-07T14:32:42.580Z,41.20
2018-07-07T14:35:11.954Z,40.70
2018-07-07T14:37:41.181Z,40.80
2018-07-07T14:40:10.459Z,41.60
2018-07-07T14:45:15.594Z,40.80
2018-07-07T14:47:46.119Z,40.30
2018-07-07T14:50:15.818Z,40.00
2018-07-07T14:52:45.537Z,40.30
2018-07-07T14:55:17.019Z,40.00
2018-07-07T14:57:46.583Z,41.40
2018-07-07T15:00:22.842Z,40.20
2018-07-07T15:02:53.279Z,40.50
2018-07-07T15:05:22.642Z,40.50
2018-07-07T15:07:52.367Z,40.80
2018-07-07T15:10:21.719Z,41.00
2018-07-07T15:12:51.744Z,41.00
2018-07-07T15:15:21.434Z,39.90
2018-07-07T15:17:50.711Z,40.30
2018-07-07T15:20:19.998Z,40.70
2018-07-07T15:22:49.848Z,41.00
2018-07-07T15:25:19.109Z,40.00
2018-07-07T15:27:48.376Z,40.20
2018-07-07T15:30:17.752Z,40.50
2018-07-07T15:32:47.070Z,40.60
2018-07-07T15:35:16.464Z,41.30
2018-07-07T15:37:45.713Z,41.50
2018-07-07T15:40:14.991Z,40.50
2018-07-07T15:42:44.194Z,40.70
2018-07-07T15:45:13.566Z,41.50
2018-07-07T15:47:42.824Z,41.30
2018-07-07T15:50:12.130Z,40.70
2018-07-07T15:52:41.402Z,41.20
2018-07-07T15:55:10.891Z,41.20
2018-07-07T15:57:40.188Z,41.10
2018-07-07T16:00:10.469Z,41.70
2018-07-07T16:02:40.736Z,41.50
2018-07-07T16:05:10.063Z,41.90
2018-07-07T16:07:39.291Z,41.90
2018-07-07T16:10:08.651Z,41.20
2018-07-07T16:12:37.902Z,41.40
2018-07-07T16:15:07.191Z,41.60
2018-07-07T16:17:36.536Z,41.10
2018-07-07T16:20:05.885Z,41.60
2018-07-07T16:22:35.183Z,41.40
2018-07-07T16:25:04.594Z,41.60
2018-07-07T16:27:33.872Z,41.70
2018-07-07T16:30:03.184Z,41.70
2018-07-07T16:32:32.522Z,42.20
2018-07-07T16:35:01.893Z,41.90
2018-07-07T16:37:31.204Z,42.10
2018-07-07T16:40:00.540Z,42.10
2018-07-07T16:42:29.852Z,42.40
2018-07-07T16:44:59.859Z,42.20
2018-07-07T16:47:29.147Z,42.10
2018-07-07T16:49:58.529Z,42.10
2018-07-07T16:52:28.515Z,42.60
2018-07-07T16:54:57.835Z,42.80
2018-07-07T16:57:27.140Z,42.50
2018-07-07T16:59:56.456Z,43.10
2018-07-07T17:02:25.747Z,43.30
2018-07-07T17:04:55.164Z,43.80
2018-07-07T17:07:24.585Z,43.10
2018-07-07T17:09:54.336Z,43.30
2018-07-07T17:12:24.015Z,43.90
2018-07-07T17:14:53.361Z,43.50
2018-07-07T17:17:23.695Z,43.30
2018-07-07T17:19:52.965Z,43.60
2018-07-07T17:22:22.546Z,44.30
2018-07-07T17:24:51.871Z,44.10
2018-07-07T17:27:21.231Z,44.50
2018-07-07T17:29:50.615Z,44.90
2018-07-07T17:32:19.981Z,43.60
2018-07-07T17:34:49.322Z,43.80
2018-07-07T17:37:18.678Z,43.60
2018-07-07T17:39:48.110Z,44.30
2018-07-07T17:42:18.006Z,44.50
2018-07-07T17:44:47.362Z,44.70
2018-07-07T17:47:16.647Z,44.90
2018-07-07T17:49:45.962Z,44.90
2018-07-07T17:52:15.426Z,45.20
2018-07-07T17:54:44.744Z,45.00
2018-07-07T17:57:13.982Z,45.00
2018-07-07T17:59:43.327Z,44.90
2018-07-07T18:02:12.676Z,45.00
2018-07-07T18:04:42.025Z,45.30
2018-07-07T18:07:11.231Z,45.90
2018-07-07T18:09:40.531Z,45.50
2018-07-07T18:14:38.750Z,46.20
2018-07-07T18:19:36.796Z,46.10
2018-07-07T18:22:06.252Z,46.10
2018-07-07T18:24:35.601Z,46.30
2018-07-07T18:27:05.162Z,46.50
2018-07-07T18:29:34.443Z,46.80
2018-07-07T18:32:04.729Z,46.10
2018-07-07T18:34:34.094Z,45.20
2018-07-07T18:37:03.411Z,45.20
2018-07-07T18:39:32.716Z,45.10
2018-07-07T18:42:01.986Z,45.40
2018-07-07T18:44:31.280Z,45.80
2018-07-07T18:47:00.624Z,46.00
2018-07-07T18:49:29.874Z,46.60
2018-07-07T18:51:59.187Z,46.60
2018-07-07T18:54:28.536Z,47.10
2018-07-07T18:56:57.791Z,47.00
2018-07-07T18:59:27.051Z,47.20
2018-07-07T19:01:56.379Z,46.90
2018-07-07T19:04:25.559Z,46.20
2018-07-07T19:06:55.001Z,46.20
2018-07-07T19:09:24.287Z,46.40
2018-07-07T19:11:53.575Z,46.40
2018-07-07T19:14:22.902Z,46.80
2018-07-07T19:16:52.287Z,46.70
2018-07-07T19:19:21.615Z,46.70
2018-07-07T19:21:56.189Z,46.90
2018-07-07T19:24:30.914Z,47.10
2018-07-07T19:27:03.817Z,47.10
2018-07-07T19:29:33.219Z,47.40
2018-07-07T19:32:07.866Z,47.70
2018-07-07T19:34:42.650Z,48.10
2018-07-07T19:37:12.551Z,48.40
2018-07-07T19:39:41.971Z,48.50
2018-07-07T19:42:11.318Z,49.10
2018-07-07T19:44:40.532Z,49.30
2018-07-07T19:47:10.128Z,49.30
2018-07-07T19:49:40.179Z,49.80
2018-07-07T19:52:10.072Z,50.00
2018-07-07T19:54:39.292Z,50.60
2018-07-07T19:57:08.596Z,50.30
2018-07-07T19:59:37.964Z,50.60
2018-07-07T20:02:07.544Z,50.70
2018-07-07T20:04:36.832Z,51.20
2018-07-07T20:07:06.054Z,51.30
2018-07-07T20:09:35.289Z,51.10
2018-07-07T20:12:04.751Z,51.50
2018-07-07T20:14:34.097Z,52.10
2018-07-07T20:17:05.491Z,52.20
2018-07-07T20:19:52.350Z,52.00
2018-07-07T20:22:21.765Z,52.60
2018-07-07T20:24:51.145Z,52.50
2018-07-07T20:27:26.166Z,52.80
2018-07-07T20:29:56.080Z,52.00
2018-07-07T20:32:31.977Z,52.10
2018-07-07T20:35:02.032Z,51.90
2018-07-07T20:37:31.538Z,52.30
2018-07-07T20:40:01.419Z,52.10
2018-07-07T20:42:31.666Z,51.90
2018-07-07T20:45:01.021Z,52.10
2018-07-07T20:47:30.397Z,52.10
2018-07-07T20:49:59.807Z,52.50
2018-07-07T20:52:29.344Z,53.20
2018-07-07T20:54:58.899Z,53.30
2018-07-07T20:57:28.917Z,53.40
2018-07-07T20:59:58.271Z,53.70
2018-07-07T21:02:28.119Z,54.00
2018-07-07T21:04:57.599Z,54.20
2018-07-07T21:07:27.352Z,54.60
2018-07-07T21:09:56.702Z,54.60
2018-07-07T21:12:25.973Z,54.40
2018-07-07T21:14:55.326Z,54.60
2018-07-07T21:17:24.736Z,54.60
2018-07-07T21:19:54.650Z,55.00
2018-07-07T21:22:24.142Z,55.70
2018-07-07T21:24:53.833Z,56.00
2018-07-07T21:27:23.203Z,56.10
2018-07-07T21:29:52.575Z,56.50
2018-07-07T21:32:22.072Z,56.70
2018-07-07T21:34:51.576Z,57.10
2018-07-07T21:37:21.164Z,57.50
2018-07-07T21:39:50.549Z,57.60
2018-07-07T21:42:20.094Z,58.40
2018-07-07T21:44:49.713Z,57.60
2018-07-07T21:47:27.283Z,58.30
2018-07-07T21:49:56.825Z,58.20
2018-07-07T21:52:27.381Z,58.30
2018-07-07T21:54:57.146Z,58.70
2018-07-07T21:57:32.013Z,59.10
2018-07-07T22:00:01.654Z,59.20
2018-07-07T22:05:16.902Z,59.30
2018-07-07T22:07:46.312Z,59.40
2018-07-07T22:10:15.796Z,59.70
2018-07-07T22:12:46.447Z,59.70
2018-07-07T22:28:15.814Z,59.80
2018-07-07T22:30:45.610Z,60.30
2018-07-07T22:33:20.246Z,60.30
2018-07-07T22:35:55.200Z,61.10
2018-07-07T22:38:30.837Z,60.80
2018-07-07T22:41:01.660Z,60.90
2018-07-07T22:43:31.331Z,60.90
2018-07-07T22:46:01.396Z,61.00
2018-07-07T22:48:30.859Z,61.60
2018-07-07T22:51:00.438Z,61.70
2018-07-07T22:53:30.025Z,62.10
2018-07-07T22:55:59.370Z,62.30
2018-07-07T22:58:28.732Z,62.30
2018-07-07T23:00:58.148Z,62.50
2018-07-07T23:03:27.740Z,62.60
2018-07-07T23:05:57.111Z,62.90
2018-07-07T23:08:27.264Z,62.80
2018-07-07T23:10:56.615Z,63.00
2018-07-07T23:13:26.037Z,63.00
2018-07-07T23:15:55.602Z,63.40
2018-07-07T23:18:25.376Z,63.40
2018-07-07T23:20:55.059Z,64.30
2018-07-07T23:23:25.697Z,63.70
2018-07-07T23:28:24.487Z,64.30
2018-07-07T23:33:23.019Z,65.10
2018-07-07T23:35:52.509Z,65.20
2018-07-07T23:38:22.744Z,65.30
2018-07-07T23:40:52.340Z,65.10
2018-07-07T23:43:23.087Z,65.30
2018-07-07T23:45:53.346Z,65.70
2018-07-07T23:48:22.663Z,65.90
2018-07-07T23:50:53.130Z,66.20
2018-07-07T23:53:22.586Z,66.70
2018-07-07T23:55:52.347Z,66.50
2018-07-07T23:58:22.159Z,66.60
